Time;durP1;ratioP1;P1;durP2;ratioP2;P2;SDS_P1;SDS_P2;PMS_P1;PMS_P2;Temp;Humidity;BMP_temperature;BMP_pressure;BME280_temperature;BME280_humidity;BME280_pressure;Samples;Min_cycle;Max_cycle;Signal;HPM_P1;HPM_P2
2023/10/24 00:02:08;;;;;;;31.53;18.30;;;;;;;-145.18;100.00;46656.50;5030282;28;20033;-67
2023/10/24 00:04:33;;;;;;;26.50;17.33;;;;;;;-145.18;100.00;46656.50;5031095;28;20128;-67
2023/10/24 00:06:58;;;;;;;31.43;17.80;;;;;;;-145.18;100.00;46656.50;5031507;28;20569;-67
2023/10/24 00:09:24;;;;;;;28.83;18.63;;;;;;;-145.18;100.00;46652.59;5029753;28;20049;-67
2023/10/24 00:11:49;;;;;;;35.73;19.13;;;;;;;-145.18;100.00;46658.44;5014078;28;20036;-67
2023/10/24 00:14:15;;;;;;;29.63;17.80;;;;;;;-145.18;100.00;46656.50;5029423;28;20568;-67
2023/10/24 00:16:40;;;;;;;28.70;17.43;;;;;;;-145.18;100.00;46652.59;5030215;28;20037;-67
2023/10/24 00:19:05;;;;;;;30.73;17.80;;;;;;;-145.18;100.00;46650.63;5029222;28;20029;-67
2023/10/24 00:21:31;;;;;;;27.10;17.40;;;;;;;-145.18;100.00;46654.53;5032014;28;20029;-67
2023/10/24 00:23:56;;;;;;;31.43;16.70;;;;;;;-145.18;100.00;46654.53;5028982;28;20041;-67
2023/10/24 00:26:21;;;;;;;28.47;16.33;;;;;;;-145.18;100.00;46656.50;5028614;28;20108;-67
2023/10/24 00:28:47;;;;;;;29.47;16.90;;;;;;;-145.18;100.00;46658.44;5025988;28;20041;-67
2023/10/24 00:31:12;;;;;;;29.43;15.73;;;;;;;-145.18;100.00;46660.41;5030669;28;20367;-67
2023/10/24 00:33:38;;;;;;;25.90;15.13;;;;;;;-145.18;100.00;46656.50;5029748;28;20508;-67
2023/10/24 00:36:03;;;;;;;30.00;15.97;;;;;;;-145.18;100.00;46656.50;5030738;28;20037;-68
2023/10/24 00:38:29;;;;;;;25.17;15.83;;;;;;;-145.18;100.00;46656.50;5029557;28;20053;-67
2023/10/24 00:40:54;;;;;;;26.03;15.30;;;;;;;-145.18;100.00;46658.44;5011902;28;20042;-67
2023/10/24 00:43:19;;;;;;;22.60;14.47;;;;;;;-145.18;100.00;46658.44;5030474;28;20428;-67
2023/10/24 00:45:45;;;;;;;26.07;16.17;;;;;;;-145.18;100.00;46656.50;5029039;28;20101;-67
2023/10/24 00:48:10;;;;;;;25.43;15.60;;;;;;;-145.18;100.00;46660.41;5029472;28;20159;-67
2023/10/24 00:50:36;;;;;;;22.97;14.40;;;;;;;-145.18;100.00;46660.41;5029750;28;20041;-67
2023/10/24 00:53:02;;;;;;;26.60;14.87;;;;;;;-145.18;100.00;46658.44;5025352;28;20079;-67
2023/10/24 00:55:30;;;;;;;22.90;14.00;;;;;;;-145.18;100.00;46660.41;5030821;28;20034;-67
2023/10/24 00:57:57;;;;;;;27.30;13.87;;;;;;;-145.18;100.00;46660.41;5029223;28;20025;-68
2023/10/24 01:00:25;;;;;;;24.90;13.57;;;;;;;-145.18;100.00;46660.41;5029820;28;20029;-67
2023/10/24 01:02:52;;;;;;;20.13;14.20;;;;;;;-145.18;100.00;46660.41;5028477;28;21264;-67
2023/10/24 01:05:17;;;;;;;23.13;12.80;;;;;;;-145.18;100.00;46660.41;5030446;28;20033;-68
2023/10/24 01:07:44;;;;;;;20.83;12.80;;;;;;;-145.18;100.00;46660.41;5028140;28;20410;-68
2023/10/24 01:10:10;;;;;;;21.53;12.70;;;;;;;-145.18;100.00;46660.41;5030857;28;20033;-68
2023/10/24 01:12:36;;;;;;;21.03;11.97;;;;;;;-145.18;100.00;46660.41;5029222;28;20057;-68
2023/10/24 01:15:03;;;;;;;20.97;12.00;;;;;;;-145.18;100.00;46660.41;5030361;28;20057;-68
2023/10/24 01:17:29;;;;;;;17.03;11.83;;;;;;;-145.18;100.00;46660.41;5027081;28;20108;-68
2023/10/24 01:19:54;;;;;;;21.57;12.37;;;;;;;-145.18;100.00;46660.41;5028668;28;20545;-68
2023/10/24 01:22:20;;;;;;;17.97;11.13;;;;;;;-145.18;100.00;46660.41;5026664;28;20037;-68
2023/10/24 01:24:47;;;;;;;16.47;11.67;;;;;;;-145.18;100.00;46660.41;5026833;28;20123;-67
2023/10/24 01:27:14;;;;;;;18.57;11.17;;;;;;;-145.18;100.00;46660.41;5030210;28;20032;-68
2023/10/24 01:29:39;;;;;;;18.93;11.13;;;;;;;-145.18;100.00;46631.09;5028708;28;20483;-67
2023/10/24 01:32:05;;;;;;;18.63;10.43;;;;;;;-145.18;100.00;46635.00;5029408;28;20139;-68
2023/10/24 01:34:31;;;;;;;20.03;11.07;;;;;;;-145.18;100.00;46660.41;5025967;28;20037;-68
2023/10/24 01:36:56;;;;;;;17.30;9.63;;;;;;;-145.18;100.00;46660.41;5029763;28;20482;-68
2023/10/24 01:39:21;;;;;;;15.83;10.63;;;;;;;-145.18;100.00;46660.41;5028946;28;20049;-67
2023/10/24 01:41:47;;;;;;;13.07;10.00;;;;;;;-145.18;100.00;46636.94;5029309;28;20170;-68
2023/10/24 01:44:12;;;;;;;13.67;9.27;;;;;;;-145.18;100.00;46636.94;5025797;28;20045;-67
2023/10/24 01:46:38;;;;;;;17.87;9.77;;;;;;;-145.18;100.00;46635.00;5029584;28;20037;-67
2023/10/24 01:49:03;;;;;;;15.10;9.30;;;;;;;-145.18;100.00;46633.06;5022650;28;20091;-68
2023/10/24 01:51:29;;;;;;;13.43;9.40;;;;;;;-145.18;100.00;46633.06;5028662;28;20037;-67
2023/10/24 01:53:54;;;;;;;16.07;9.20;;;;;;;-145.18;100.00;46638.91;5027962;28;20034;-67
2023/10/24 01:56:19;;;;;;;15.03;8.97;;;;;;;-145.18;100.00;46635.00;5029516;28;20033;-68
2023/10/24 01:58:45;;;;;;;12.57;8.13;;;;;;;-145.18;100.00;46633.06;5029543;28;20033;-68
2023/10/24 02:01:10;;;;;;;13.83;8.60;;;;;;;-145.18;100.00;46636.94;5028876;28;20398;-68
2023/10/24 02:03:36;;;;;;;16.73;8.10;;;;;;;-145.18;100.00;46633.06;5026745;28;20029;-67
2023/10/24 02:06:01;;;;;;;12.63;8.83;;;;;;;-145.18;100.00;46638.91;5025862;28;20082;-68
2023/10/24 02:08:26;;;;;;;14.43;8.47;;;;;;;-145.18;100.00;46638.91;5026614;28;20038;-69
2023/10/24 02:10:52;;;;;;;10.47;7.07;;;;;;;-145.18;100.00;46640.88;5030468;28;20107;-69
2023/10/24 02:13:17;;;;;;;11.80;7.90;;;;;;;-145.18;100.00;46638.91;5030687;28;20477;-69
2023/10/24 02:15:43;;;;;;;14.97;8.17;;;;;;;-145.18;100.00;46636.94;5028720;28;20454;-69
2023/10/24 02:18:09;;;;;;;13.37;7.80;;;;;;;-145.18;100.00;46638.91;5026339;28;20033;-69
2023/10/24 02:20:34;;;;;;;13.10;8.47;;;;;;;-145.18;100.00;46640.88;5025983;28;20044;-69
2023/10/24 02:23:00;;;;;;;9.03;7.13;;;;;;;-145.18;100.00;46640.88;5027306;28;20116;-69
2023/10/24 02:25:25;;;;;;;14.67;7.93;;;;;;;-145.18;100.00;46660.41;5030184;28;20087;-69
2023/10/24 02:27:52;;;;;;;13.83;7.77;;;;;;;-145.18;100.00;46638.91;5030049;28;20033;-68
2023/10/24 02:30:18;;;;;;;11.53;8.27;;;;;;;-145.18;100.00;46642.81;5027274;28;20133;-68
2023/10/24 02:32:43;;;;;;;11.67;7.90;;;;;;;-145.18;100.00;46635.00;5033312;28;20493;-69
2023/10/24 02:35:08;;;;;;;14.97;8.80;;;;;;;-145.18;100.00;46636.94;5058399;28;20033;-69
2023/10/24 02:37:34;;;;;;;15.00;9.77;;;;;;;-145.18;100.00;46642.81;5028386;28;20045;-68
2023/10/24 02:39:59;;;;;;;15.03;9.03;;;;;;;-145.18;100.00;46638.91;5031475;28;20405;-69
2023/10/24 02:42:25;;;;;;;15.30;9.97;;;;;;;-145.18;100.00;46640.88;5033663;28;20041;-68
2023/10/24 02:44:50;;;;;;;15.53;9.97;;;;;;;-145.18;100.00;46642.81;5034380;28;20125;-69
2023/10/24 02:47:16;;;;;;;17.53;10.33;;;;;;;-145.18;100.00;46635.00;5029049;28;20400;-69
2023/10/24 02:49:41;;;;;;;17.27;10.90;;;;;;;-145.18;100.00;46636.94;5033611;28;20029;-69
2023/10/24 02:52:07;;;;;;;18.30;10.77;;;;;;;-145.18;100.00;46638.91;5031737;28;20060;-68
2023/10/24 02:54:33;;;;;;;16.50;10.47;;;;;;;-145.18;100.00;46635.00;5031215;28;20040;-68
2023/10/24 02:56:59;;;;;;;20.33;12.23;;;;;;;-145.18;100.00;46635.00;5028070;28;20051;-69
2023/10/24 02:59:24;;;;;;;19.40;12.03;;;;;;;-145.18;100.00;46635.00;5033131;28;20037;-68
2023/10/24 03:01:49;;;;;;;18.70;12.23;;;;;;;-145.18;100.00;46660.41;5031968;28;20555;-68
2023/10/24 03:04:15;;;;;;;17.43;11.73;;;;;;;-145.18;100.00;46635.00;5031716;28;20124;-68
2023/10/24 03:06:41;;;;;;;15.77;11.43;;;;;;;-145.18;100.00;46635.00;5032267;28;20091;-69
2023/10/24 03:09:06;;;;;;;16.87;11.87;;;;;;;-145.18;100.00;46638.91;5032157;28;20503;-68
2023/10/24 03:11:31;;;;;;;19.63;12.30;;;;;;;-145.18;100.00;46638.91;5028510;28;20443;-68
2023/10/24 03:13:57;;;;;;;19.00;11.67;;;;;;;-145.18;100.00;46635.00;5031294;28;20678;-68
2023/10/24 03:16:22;;;;;;;21.30;12.30;;;;;;;-145.18;100.00;46640.88;5032247;28;20037;-67
2023/10/24 03:18:48;;;;;;;18.47;12.63;;;;;;;-145.18;100.00;46638.91;5032116;28;20116;-67
2023/10/24 03:21:13;;;;;;;21.47;11.93;;;;;;;-145.18;100.00;46635.00;5031375;28;20478;-67
2023/10/24 03:23:44;;;;;;;20.77;13.10;;;;;;;-145.18;100.00;46635.00;5031489;28;20049;-67
2023/10/24 03:26:09;;;;;;;19.63;11.97;;;;;;;-145.18;100.00;46636.94;5028469;28;20029;-67
2023/10/24 03:28:35;;;;;;;18.50;12.27;;;;;;;-145.18;100.00;46636.94;5031885;28;20044;-67
2023/10/24 03:31:05;;;;;;;22.77;12.97;;;;;;;-145.18;100.00;46642.81;5033064;28;20095;-67
2023/10/24 03:33:31;;;;;;;17.70;11.17;;;;;;;-145.18;100.00;46640.88;5031896;28;20120;-67
2023/10/24 03:35:57;;;;;;;23.80;12.60;;;;;;;-145.18;100.00;46642.81;5031907;28;20519;-67
2023/10/24 03:38:24;;;;;;;18.33;11.67;;;;;;;-145.18;100.00;46638.91;5029653;28;20144;-67
2023/10/24 03:40:49;;;;;;;18.60;13.43;;;;;;;-145.18;100.00;46638.91;5030392;28;20038;-67
2023/10/24 03:43:15;;;;;;;17.40;12.23;;;;;;;-145.18;100.00;46640.88;5026462;28;20052;-67
2023/10/24 03:45:41;;;;;;;17.90;11.90;;;;;;;-145.18;100.00;46636.94;5030343;28;20025;-68
2023/10/24 03:48:06;;;;;;;18.33;12.10;;;;;;;-145.18;100.00;46642.81;5032170;28;20037;-68
2023/10/24 03:50:39;;;;;;;21.17;13.67;;;;;;;-145.18;100.00;46640.88;5031315;28;20032;-68
2023/10/24 03:53:05;;;;;;;21.63;13.93;;;;;;;-145.18;100.00;46638.91;5029852;28;20164;-67
2023/10/24 03:55:31;;;;;;;19.70;13.50;;;;;;;-145.18;100.00;46660.41;5028375;28;20056;-67
2023/10/24 03:57:59;;;;;;;21.00;13.80;;;;;;;-145.18;100.00;46636.94;5029126;28;20033;-67
2023/10/24 04:00:25;;;;;;;20.80;12.70;;;;;;;-145.18;100.00;46638.91;5029844;28;20112;-67
2023/10/24 04:02:52;;;;;;;19.53;13.53;;;;;;;-145.18;100.00;46660.41;5030593;28;20519;-67
2023/10/24 04:05:17;;;;;;;21.93;12.57;;;;;;;-145.18;100.00;46638.91;5031179;28;20033;-67
2023/10/24 04:07:43;;;;;;;20.00;12.80;;;;;;;-145.18;100.00;46660.41;5032586;28;20037;-67
2023/10/24 04:10:08;;;;;;;20.47;13.27;;;;;;;-145.18;100.00;46633.06;5031009;28;20028;-67
2023/10/24 04:12:34;;;;;;;19.83;12.67;;;;;;;-145.18;100.00;46635.00;5033440;28;20040;-67
2023/10/24 04:14:59;;;;;;;19.43;13.20;;;;;;;-145.18;100.00;46660.41;5031963;28;20041;-67
2023/10/24 04:17:24;;;;;;;19.73;12.93;;;;;;;-145.18;100.00;46635.00;5015405;28;20048;-67
2023/10/24 04:19:50;;;;;;;21.53;12.90;;;;;;;-145.18;100.00;46660.41;5027332;28;20045;-67
2023/10/24 04:22:15;;;;;;;26.17;13.83;;;;;;;-145.18;100.00;46633.06;5028822;28;20040;-68
2023/10/24 04:24:41;;;;;;;18.30;11.53;;;;;;;-145.18;100.00;46660.41;5031572;28;20427;-67
2023/10/24 04:27:08;;;;;;;19.00;11.30;;;;;;;-145.18;100.00;46660.41;5015378;28;20040;-67
2023/10/24 04:29:33;;;;;;;17.73;11.97;;;;;;;-145.18;100.00;46660.41;5031471;28;20493;-67
2023/10/24 04:31:58;;;;;;;19.97;12.20;;;;;;;-145.18;100.00;46633.06;5030592;28;20037;-67
2023/10/24 04:34:24;;;;;;;17.03;11.40;;;;;;;-145.18;100.00;46660.41;5031205;28;20034;-67
2023/10/24 04:36:50;;;;;;;18.53;11.93;;;;;;;-145.18;100.00;46660.41;5032829;28;20493;-67
2023/10/24 04:39:15;;;;;;;18.10;12.00;;;;;;;-145.18;100.00;46633.06;5008131;28;20057;-67
2023/10/24 04:41:40;;;;;;;19.00;12.43;;;;;;;-145.18;100.00;46660.41;5033969;28;20099;-67
2023/10/24 04:44:06;;;;;;;18.07;12.37;;;;;;;-145.18;100.00;46660.41;5026579;28;20486;-67
2023/10/24 04:46:31;;;;;;;19.93;13.17;;;;;;;-145.18;100.00;46660.41;5035224;28;20033;-67
2023/10/24 04:48:58;;;;;;;20.13;12.63;;;;;;;-145.18;100.00;46660.41;5031259;28;20064;-67
2023/10/24 04:51:23;;;;;;;16.00;11.73;;;;;;;-145.18;100.00;46660.41;5030851;28;20083;-67
2023/10/24 04:53:48;;;;;;;17.20;12.43;;;;;;;-145.18;100.00;46660.41;5030636;28;20064;-67
2023/10/24 04:56:14;;;;;;;21.13;12.50;;;;;;;-145.18;100.00;46660.41;5028209;28;20040;-67
2023/10/24 04:58:39;;;;;;;17.43;11.37;;;;;;;-145.18;100.00;46633.06;5031972;28;20068;-67
2023/10/24 05:01:04;;;;;;;18.23;11.77;;;;;;;-145.18;100.00;46660.41;5029806;28;20030;-67
2023/10/24 05:03:34;;;;;;;17.23;11.10;;;;;;;-145.18;100.00;46660.41;5032674;28;20091;-67
2023/10/24 05:06:00;;;;;;;18.97;11.70;;;;;;;-145.18;100.00;46635.00;5031451;28;20404;-67
2023/10/24 05:08:25;;;;;;;18.23;11.90;;;;;;;-145.18;100.00;46636.94;5031434;28;20037;-67
2023/10/24 05:10:51;;;;;;;16.03;10.73;;;;;;;-145.18;100.00;46633.06;5031465;28;20029;-67
2023/10/24 05:13:16;;;;;;;19.17;11.60;;;;;;;-145.18;100.00;46633.06;5028282;28;20041;-67
2023/10/24 05:15:41;;;;;;;15.73;11.03;;;;;;;-145.18;100.00;46635.00;5030340;28;20044;-67
2023/10/24 05:18:11;;;;;;;16.30;11.27;;;;;;;-145.18;100.00;46638.91;5029800;28;20494;-67
2023/10/24 05:20:36;;;;;;;22.47;11.37;;;;;;;-145.18;100.00;46633.06;5029685;28;20436;-67
2023/10/24 05:23:02;;;;;;;16.03;10.13;;;;;;;-145.18;100.00;46638.91;5029784;28;20063;-67
2023/10/24 05:25:27;;;;;;;15.33;10.77;;;;;;;-145.18;100.00;46636.94;5030485;28;20112;-67
2023/10/24 05:27:52;;;;;;;14.73;10.13;;;;;;;-145.18;100.00;46638.91;5030933;28;20037;-67
2023/10/24 05:30:18;;;;;;;16.10;10.47;;;;;;;-145.18;100.00;46636.94;5030848;28;20103;-67
2023/10/24 05:32:43;;;;;;;15.50;10.47;;;;;;;-145.18;100.00;46633.06;5028766;28;20033;-67
2023/10/24 05:35:09;;;;;;;13.40;9.67;;;;;;;-145.18;100.00;46638.91;5029678;28;20112;-68
2023/10/24 05:37:34;;;;;;;13.80;8.93;;;;;;;-145.18;100.00;46636.94;5027734;28;20458;-67
2023/10/24 05:39:59;;;;;;;14.70;9.90;;;;;;;-145.18;100.00;46636.94;5027799;28;20474;-67
2023/10/24 05:42:25;;;;;;;14.30;9.40;;;;;;;-145.18;100.00;46633.06;5027348;28;20039;-67
2023/10/24 05:44:50;;;;;;;14.93;9.20;;;;;;;-145.18;100.00;46636.94;5024713;28;20034;-67
2023/10/24 05:47:16;;;;;;;13.37;9.10;;;;;;;-145.18;100.00;46635.00;5029944;28;20029;-68
2023/10/24 05:49:42;;;;;;;14.70;9.80;;;;;;;-145.18;100.00;46638.91;5027861;28;20110;-68
2023/10/24 05:52:07;;;;;;;14.07;9.03;;;;;;;-145.18;100.00;46636.94;5026073;28;20092;-68
2023/10/24 05:54:36;;;;;;;15.13;8.83;;;;;;;-145.18;100.00;46640.88;5025396;28;20501;-67
2023/10/24 05:57:01;;;;;;;14.27;8.67;;;;;;;-145.18;100.00;46642.81;5027709;28;20041;-67
2023/10/24 05:59:27;;;;;;;12.50;8.60;;;;;;;-145.18;100.00;46638.91;5021692;28;20051;-67
2023/10/24 06:01:53;;;;;;;14.47;9.83;;;;;;;-145.18;100.00;46635.00;5027464;28;20041;-68
2023/10/24 06:04:18;;;;;;;17.77;9.60;;;;;;;-145.18;100.00;46636.94;5028650;28;20083;-67
2023/10/24 06:06:44;;;;;;;13.00;9.10;;;;;;;-145.18;100.00;46638.91;5034620;28;20742;-67
2023/10/24 06:09:12;;;;;;;13.20;8.77;;;;;;;-145.18;100.00;46635.00;5040019;28;20420;-67
2023/10/24 06:11:41;;;;;;;14.70;9.13;;;;;;;-145.18;100.00;46640.88;5027846;28;20105;-67
2023/10/24 06:14:06;;;;;;;13.47;9.07;;;;;;;-145.18;100.00;46638.91;5029532;28;20021;-67
2023/10/24 06:16:32;;;;;;;13.73;9.17;;;;;;;-145.18;100.00;46636.94;5031549;28;20137;-67
2023/10/24 06:18:57;;;;;;;13.17;8.40;;;;;;;-145.18;100.00;46642.81;5032729;28;20037;-67
2023/10/24 06:21:23;;;;;;;13.37;8.83;;;;;;;-145.18;100.00;46642.81;5032123;28;20047;-68
2023/10/24 06:23:48;;;;;;;14.30;9.43;;;;;;;-145.18;100.00;46644.78;5036468;28;20037;-67
2023/10/24 06:26:15;;;;;;;14.13;9.33;;;;;;;-145.18;100.00;46642.81;5031315;28;20037;-68
2023/10/24 06:28:42;;;;;;;16.87;9.83;;;;;;;-145.18;100.00;46644.78;5033188;28;20451;-68
2023/10/24 06:31:07;;;;;;;13.40;8.87;;;;;;;-145.18;100.00;46642.81;5027229;28;20045;-68
2023/10/24 06:33:33;;;;;;;15.03;9.70;;;;;;;-145.18;100.00;46642.81;5028085;28;20109;-67
2023/10/24 06:35:59;;;;;;;14.80;10.10;;;;;;;-145.18;100.00;46642.81;5031758;28;20425;-67
2023/10/24 06:38:25;;;;;;;14.97;10.20;;;;;;;-145.18;100.00;46642.81;5025208;28;20053;-67
2023/10/24 06:40:51;;;;;;;14.50;8.77;;;;;;;-145.18;100.00;46640.88;5032000;28;20485;-67
2023/10/24 06:43:18;;;;;;;14.00;9.30;;;;;;;-145.18;100.00;46642.81;5030799;28;20504;-67
2023/10/24 06:45:45;;;;;;;14.53;9.13;;;;;;;-145.18;100.00;46642.81;5034752;28;20046;-68
2023/10/24 06:48:11;;;;;;;14.80;9.53;;;;;;;-145.18;100.00;46644.78;5038686;28;20119;-68
2023/10/24 06:50:38;;;;;;;13.90;9.77;;;;;;;-145.18;100.00;46650.63;5030191;28;20541;-68
2023/10/24 06:53:04;;;;;;;12.03;8.87;;;;;;;-145.18;100.00;46648.69;5032299;28;20040;-67
2023/10/24 06:55:29;;;;;;;14.30;9.60;;;;;;;-145.18;100.00;46646.72;5035458;28;20079;-67
2023/10/24 06:57:55;;;;;;;17.10;9.90;;;;;;;-145.18;100.00;46646.72;5034055;28;20037;-67
2023/10/24 07:00:22;;;;;;;16.70;10.70;;;;;;;-145.18;100.00;46648.69;5039356;28;20039;-68
2023/10/24 07:02:48;;;;;;;18.23;10.97;;;;;;;-145.18;100.00;46642.81;5031196;28;20095;-67
2023/10/24 07:05:14;;;;;;;16.47;10.83;;;;;;;-145.18;100.00;46646.72;5035684;28;20081;-67
2023/10/24 07:07:39;;;;;;;18.87;11.30;;;;;;;-145.18;100.00;46642.81;5032146;28;20435;-68
2023/10/24 07:10:07;;;;;;;17.10;11.53;;;;;;;-145.18;100.00;46640.88;5036200;28;20127;-68
2023/10/24 07:12:33;;;;;;;17.53;10.67;;;;;;;-145.18;100.00;46646.72;5032551;28;20029;-67
2023/10/24 07:14:58;;;;;;;21.53;11.97;;;;;;;-145.18;100.00;46642.81;5032494;28;20107;-68
2023/10/24 07:17:24;;;;;;;18.17;10.63;;;;;;;-145.18;100.00;46642.81;5031863;28;20033;-67
2023/10/24 07:19:50;;;;;;;15.20;11.37;;;;;;;-145.18;100.00;46644.78;5034681;28;20033;-68
2023/10/24 07:22:15;;;;;;;17.73;10.87;;;;;;;-145.18;100.00;46646.72;5033375;28;20033;-67
2023/10/24 07:24:41;;;;;;;19.60;11.17;;;;;;;-145.18;100.00;46648.69;5030894;28;20474;-68
2023/10/24 07:27:08;;;;;;;18.43;11.20;;;;;;;-145.18;100.00;46646.72;5031434;28;20072;-68
2023/10/24 07:29:34;;;;;;;16.03;10.40;;;;;;;-145.18;100.00;46644.78;5032571;28;20515;-67
2023/10/24 07:31:59;;;;;;;19.70;11.33;;;;;;;-145.18;100.00;46640.88;5030788;28;20112;-68
2023/10/24 07:34:25;;;;;;;19.63;11.63;;;;;;;-145.18;100.00;46644.78;5031191;28;20026;-68
2023/10/24 07:36:50;;;;;;;17.93;11.03;;;;;;;-145.18;100.00;46642.81;5030940;28;20397;-68
2023/10/24 07:39:16;;;;;;;19.20;12.20;;;;;;;-145.18;100.00;46646.72;5024126;28;20140;-68
2023/10/24 07:41:42;;;;;;;19.63;11.33;;;;;;;-145.18;100.00;46648.69;5029506;28;20037;-68
2023/10/24 07:44:07;;;;;;;20.57;11.33;;;;;;;-145.18;100.00;46642.81;5030665;28;20110;-68
2023/10/24 07:46:32;;;;;;;19.93;12.00;;;;;;;-145.18;100.00;46644.78;5030989;28;20110;-68
2023/10/24 07:48:58;;;;;;;18.87;12.67;;;;;;;-145.18;100.00;46648.69;5031747;28;20032;-68
2023/10/24 07:51:31;;;;;;;19.67;11.13;;;;;;;-145.18;100.00;46642.81;5026577;28;20030;-68
2023/10/24 07:53:57;;;;;;;19.40;12.23;;;;;;;-145.18;100.00;46646.72;5031453;28;20025;-67
2023/10/24 07:56:22;;;;;;;21.77;13.40;;;;;;;-145.18;100.00;46650.63;5030213;28;20036;-68
2023/10/24 07:58:47;;;;;;;20.97;12.90;;;;;;;-145.18;100.00;46642.81;5032722;28;20044;-67
2023/10/24 08:01:13;;;;;;;20.00;13.10;;;;;;;-145.18;100.00;46648.69;5033400;28;20088;-68
2023/10/24 08:03:38;;;;;;;17.23;11.57;;;;;;;-145.18;100.00;46650.63;5024985;28;20041;-68
2023/10/24 08:06:04;;;;;;;20.90;12.10;;;;;;;-145.18;100.00;46648.69;5029905;28;20116;-68
2023/10/24 08:08:29;;;;;;;17.93;12.07;;;;;;;-145.18;100.00;46648.69;5031112;28;20500;-68
2023/10/24 08:10:55;;;;;;;16.90;11.50;;;;;;;-145.18;100.00;46648.69;5021194;28;20058;-68
2023/10/24 08:13:20;;;;;;;17.30;11.80;;;;;;;-145.18;100.00;46652.59;5032272;28;20404;-68
2023/10/24 08:15:48;;;;;;;15.00;10.20;;;;;;;-145.18;100.00;46656.50;5012561;28;20041;-68
2023/10/24 08:18:13;;;;;;;15.33;10.07;;;;;;;-145.18;100.00;46662.34;5030396;28;20029;-68
2023/10/24 08:20:39;;;;;;;13.67;10.17;;;;;;;-145.18;100.00;46658.44;5031881;28;20033;-68
2023/10/24 08:23:04;;;;;;;14.33;10.20;;;;;;;-145.18;100.00;46662.34;5031914;28;20150;-68
2023/10/24 08:25:31;;;;;;;14.40;10.33;;;;;;;-145.18;100.00;46658.44;5011691;28;20037;-68
2023/10/24 08:27:56;;;;;;;14.23;9.60;;;;;;;-145.18;100.00;46668.22;5031932;28;20052;-68
2023/10/24 08:30:22;;;;;;;15.47;10.37;;;;;;;-145.18;100.00;46666.25;5031128;28;20029;-68
2023/10/24 08:32:47;;;;;;;15.50;9.90;;;;;;;-145.18;100.00;46668.22;5029476;28;20771;-68
2023/10/24 08:35:12;;;;;;;13.00;9.30;;;;;;;-145.18;100.00;46664.31;5031453;28;20539;-68
2023/10/24 08:37:38;;;;;;;14.50;9.57;;;;;;;-145.18;100.00;46666.25;5030740;28;20069;-68
2023/10/24 08:40:04;;;;;;;14.37;9.60;;;;;;;-145.18;100.00;46662.34;5027269;28;20061;-68
2023/10/24 08:42:30;;;;;;;13.67;8.67;;;;;;;-145.18;100.00;46664.31;5028459;28;20098;-68
2023/10/24 08:44:57;;;;;;;13.13;9.03;;;;;;;-145.18;100.00;46660.41;5027687;28;20041;-68
2023/10/24 08:47:23;;;;;;;12.03;8.47;;;;;;;-145.18;100.00;46666.25;5030451;28;20029;-68
2023/10/24 08:49:50;;;;;;;15.07;8.90;;;;;;;-145.18;100.00;46670.16;5030915;28;20036;-68
2023/10/24 08:52:15;;;;;;;12.67;8.60;;;;;;;-145.18;100.00;46660.41;5030081;28;20039;-68
2023/10/24 08:54:40;;;;;;;12.57;8.70;;;;;;;-145.18;100.00;46670.16;5026721;28;20038;-68
2023/10/24 08:57:07;;;;;;;11.30;8.10;;;;;;;-145.18;100.00;46668.22;5031656;28;20379;-68
2023/10/24 08:59:37;;;;;;;12.03;7.63;;;;;;;-145.18;100.00;46666.25;5028227;28;20048;-68
2023/10/24 09:02:03;;;;;;;11.47;7.77;;;;;;;-145.18;100.00;46670.16;5029899;28;20061;-68
2023/10/24 09:04:31;;;;;;;10.73;7.10;;;;;;;-145.18;100.00;46668.22;5026992;28;20064;-68
2023/10/24 09:06:57;;;;;;;12.57;7.23;;;;;;;-145.18;100.00;46666.25;5031647;28;20041;-69
2023/10/24 09:09:25;;;;;;;13.23;7.90;;;;;;;-145.18;100.00;46672.13;5029435;28;20784;-69
2023/10/24 09:11:56;;;;;;;12.20;7.93;;;;;;;-145.18;100.00;46674.06;5030311;28;20037;-68
2023/10/24 09:14:26;;;;;;;14.17;8.77;;;;;;;-145.18;100.00;46674.06;5024068;28;20033;-68
2023/10/24 09:17:05;;;;;;;17.83;8.80;;;;;;;-145.18;100.00;46674.06;5031116;28;20040;-68
2023/10/24 09:19:30;;;;;;;13.43;9.43;;;;;;;-145.18;100.00;46670.16;5029310;28;20469;-68
2023/10/24 09:22:02;;;;;;;18.10;9.60;;;;;;;-145.18;100.00;46676.03;5029664;28;20029;-68
2023/10/24 09:24:27;;;;;;;12.30;7.97;;;;;;;-145.18;100.00;46672.13;5025375;28;20061;-68
2023/10/24 09:26:54;;;;;;;15.43;9.37;;;;;;;-145.18;100.00;46672.13;5031255;28;20049;-68
2023/10/24 09:29:24;;;;;;;14.73;9.47;;;;;;;-145.18;100.00;46672.13;5034443;28;20044;-68
2023/10/24 09:31:50;;;;;;;19.23;10.60;;;;;;;-145.18;100.00;46672.13;5037795;28;20037;-68
2023/10/24 09:34:16;;;;;;;15.03;10.07;;;;;;;-145.18;100.00;46668.22;5037615;28;20049;-68
2023/10/24 09:36:42;;;;;;;13.80;9.33;;;;;;;-145.18;100.00;46672.13;5036341;28;20029;-68
2023/10/24 09:39:15;;;;;;;15.87;9.63;;;;;;;-145.18;100.00;46672.13;5032799;28;20116;-69
2023/10/24 09:41:46;;;;;;;13.60;10.30;;;;;;;-145.18;100.00;46672.13;5035794;28;21235;-68
2023/10/24 09:44:11;;;;;;;15.43;10.33;;;;;;;-145.18;100.00;46670.16;5036654;28;20031;-68
2023/10/24 09:46:38;;;;;;;15.53;9.63;;;;;;;-145.18;100.00;46668.22;5036359;28;20037;-68
2023/10/24 09:49:05;;;;;;;15.80;10.30;;;;;;;-145.18;100.00;46666.25;5037658;28;20021;-68
2023/10/24 09:51:32;;;;;;;15.17;10.30;;;;;;;-145.18;100.00;46660.41;5035477;28;20041;-68
2023/10/24 09:54:02;;;;;;;14.50;10.43;;;;;;;-145.18;100.00;46666.25;5035970;28;20094;-69
2023/10/24 09:56:28;;;;;;;15.90;9.47;;;;;;;-145.18;100.00;46674.06;5033254;28;20033;-69
2023/10/24 09:58:54;;;;;;;12.90;9.60;;;;;;;-145.18;100.00;46668.22;5036320;28;20045;-68
2023/10/24 10:01:21;;;;;;;13.73;8.87;;;;;;;-145.18;100.00;46664.31;5035776;28;20032;-69
2023/10/24 10:03:47;;;;;;;11.87;8.67;;;;;;;-145.18;100.00;46666.25;5030825;28;20068;-68
2023/10/24 10:06:16;;;;;;;16.30;8.67;;;;;;;-145.18;100.00;46668.22;5034554;28;20036;-68
2023/10/24 10:08:42;;;;;;;13.47;8.70;;;;;;;-145.18;100.00;46668.22;5036002;28;20030;-69
2023/10/24 10:11:07;;;;;;;12.13;8.30;;;;;;;-145.18;100.00;46670.16;5033735;28;20028;-68
2023/10/24 10:13:54;;;;;;;10.50;7.97;;;;;;;-145.18;100.00;46662.34;5031800;28;20055;-69
2023/10/24 10:16:47;;;;;;;13.03;6.70;;;;;;;-145.18;100.00;46664.31;5036999;28;21228;-69
2023/10/24 10:19:27;;;;;;;10.70;7.13;;;;;;;-145.18;100.00;46668.22;5035345;28;20040;-69
2023/10/24 10:22:10;;;;;;;12.40;8.13;;;;;;;-145.18;100.00;46668.22;5032195;28;20406;-69
2023/10/24 10:24:41;;;;;;;12.90;7.60;;;;;;;-145.18;100.00;46668.22;5027947;28;20060;-69
2023/10/24 10:27:36;;;;;;;12.60;7.13;;;;;;;-145.18;100.00;46660.41;5029497;28;20021;-69
2023/10/24 10:30:01;;;;;;;12.07;6.77;;;;;;;-145.18;100.00;46668.22;5026648;28;20018;-69
2023/10/24 10:33:00;;;;;;;9.57;7.13;;;;;;;-145.18;100.00;46666.25;5023595;28;20037;-69
2023/10/24 10:35:57;;;;;;;11.80;6.90;;;;;;;-145.18;100.00;46668.22;5017814;28;20026;-69
2023/10/24 10:38:42;;;;;;;12.87;7.30;;;;;;;-145.18;100.00;46670.16;5022258;28;20049;-69
2023/10/24 10:41:34;;;;;;;13.60;7.67;;;;;;;-145.18;100.00;46658.44;5024217;28;20549;-68
2023/10/24 10:44:01;;;;;;;9.70;7.73;;;;;;;-145.18;100.00;46662.34;5025238;28;20102;-69
2023/10/24 10:46:31;;;;;;;14.80;7.70;;;;;;;-145.18;100.00;46658.44;5027081;28;20433;-69
2023/10/24 10:49:00;;;;;;;9.77;7.60;;;;;;;-145.18;100.00;46658.44;5029773;28;20036;-68
2023/10/24 10:51:31;;;;;;;10.27;7.33;;;;;;;-145.18;100.00;46658.44;5026613;28;20029;-68
2023/10/24 10:54:21;;;;;;;10.87;8.00;;;;;;;-145.18;100.00;46660.41;5026744;28;20025;-69
2023/10/24 10:56:48;;;;;;;12.47;8.33;;;;;;;-145.18;100.00;46654.53;5033261;28;20029;-69